createdAt,value
2022-09-27T00:00:58.329Z,1.95
2022-09-27T00:01:59.907Z,1.83
2022-09-27T00:03:01.541Z,2.00
2022-09-27T00:04:03.099Z,2.78
2022-09-27T00:05:06.109Z,2.03
2022-09-27T00:06:13.386Z,3.42
2022-09-27T00:07:14.857Z,3.80
2022-09-27T00:08:16.249Z,2.00
2022-09-27T00:09:17.781Z,3.33
2022-09-27T00:10:19.235Z,1.30
2022-09-27T00:11:26.888Z,1.17
2022-09-27T00:12:28.480Z,2.55
2022-09-27T00:13:30.265Z,2.50
2022-09-27T00:14:31.810Z,1.30
2022-09-27T00:15:33.255Z,1.73
2022-09-27T00:16:37.493Z,2.33
2022-09-27T00:17:39.084Z,2.65
2022-09-27T00:18:40.515Z,1.95
2022-09-27T00:19:42.079Z,1.35
2022-09-27T00:20:43.483Z,1.17
2022-09-27T00:21:46.468Z,1.98
2022-09-27T00:22:49.004Z,1.58
2022-09-27T00:23:50.518Z,1.73
2022-09-27T00:24:52.528Z,2.35
2022-09-27T00:25:57.797Z,1.90
2022-09-27T00:26:59.198Z,3.47
2022-09-27T00:28:01.068Z,2.72
2022-09-27T00:29:02.484Z,5.00
2022-09-27T00:30:04.532Z,2.80
2022-09-27T00:31:14.341Z,2.17
2022-09-27T00:32:15.821Z,2.85
2022-09-27T00:33:17.415Z,3.17
2022-09-27T00:34:21.419Z,4.00
2022-09-27T00:35:22.829Z,2.25
2022-09-27T00:36:25.211Z,3.40
2022-09-27T00:37:27.960Z,3.67
2022-09-27T00:38:29.368Z,2.03
2022-09-27T00:39:30.926Z,1.77
2022-09-27T00:40:32.606Z,3.72
2022-09-27T00:41:35.920Z,3.50
2022-09-27T00:42:37.411Z,2.08
2022-09-27T00:43:48.549Z,4.45
2022-09-27T00:45:11.720Z,4.05
2022-09-27T00:46:18.366Z,2.03
2022-09-27T00:47:27.265Z,2.20
2022-09-27T00:48:31.720Z,2.95
2022-09-27T00:49:36.950Z,1.60
2022-09-27T00:50:41.978Z,2.08
2022-09-27T00:51:47.862Z,2.20
2022-09-27T00:52:59.710Z,1.60
2022-09-27T00:54:01.431Z,2.50
2022-09-27T00:55:06.937Z,3.13
2022-09-27T00:56:11.964Z,3.97
2022-09-27T00:57:13.451Z,2.53
2022-09-27T00:58:18.862Z,2.25
2022-09-27T00:59:26.389Z,5.20
2022-09-27T01:00:27.882Z,3.55
2022-09-27T01:01:29.326Z,3.63
2022-09-27T01:02:31.427Z,3.75
2022-09-27T01:03:38.960Z,3.20
2022-09-27T01:04:43.550Z,1.67
2022-09-27T01:05:45.129Z,2.30
2022-09-27T01:06:46.550Z,2.63
2022-09-27T01:07:47.991Z,2.95
2022-09-27T01:08:50.761Z,3.25
2022-09-27T01:09:52.269Z,2.28
2022-09-27T01:11:08.835Z,2.10
2022-09-27T01:12:20.512Z,1.83
2022-09-27T01:13:26.784Z,1.85
2022-09-27T01:14:41.277Z,1.90
2022-09-27T01:15:50.772Z,2.75
2022-09-27T01:17:00.754Z,2.22
2022-09-27T01:18:17.058Z,3.22
2022-09-27T01:19:39.487Z,2.08
2022-09-27T01:21:15.461Z,2.35
2022-09-27T01:22:21.128Z,1.42
2022-09-27T01:23:47.616Z,2.33
2022-09-27T01:25:12.869Z,2.70
2022-09-27T01:26:28.029Z,1.65
2022-09-27T01:28:18.589Z,2.00
2022-09-27T01:29:31.311Z,1.52
2022-09-27T01:30:43.699Z,1.70
2022-09-27T01:31:53.623Z,1.88
2022-09-27T01:33:08.320Z,2.65
2022-09-27T01:34:22.267Z,1.75
2022-09-27T01:35:34.316Z,4.30
2022-09-27T01:36:49.096Z,1.98
2022-09-27T01:37:57.201Z,4.60
2022-09-27T01:39:11.137Z,1.80
2022-09-27T01:40:20.475Z,1.83
2022-09-27T01:41:31.685Z,2.42
2022-09-27T01:42:40.244Z,2.53
2022-09-27T01:43:47.807Z,2.22
2022-09-27T01:44:55.424Z,3.47
2022-09-27T01:46:01.484Z,2.40
2022-09-27T01:47:05.995Z,2.05
2022-09-27T01:48:11.573Z,2.20
2022-09-27T01:49:17.352Z,3.65
2022-09-27T01:50:24.201Z,3.45
2022-09-27T01:51:31.636Z,4.55
2022-09-27T01:52:37.686Z,2.35
2022-09-27T01:53:42.455Z,2.22
2022-09-27T01:54:52.803Z,2.45
2022-09-27T01:55:55.880Z,2.15
2022-09-27T01:57:01.277Z,2.58
2022-09-27T01:58:06.616Z,1.90
2022-09-27T01:59:13.081Z,2.35
2022-09-27T02:00:14.811Z,2.28
2022-09-27T02:01:20.071Z,2.58
2022-09-27T02:02:25.294Z,2.33
2022-09-27T02:03:30.680Z,2.75
2022-09-27T02:04:33.938Z,2.30
2022-09-27T02:05:40.346Z,4.15
2022-09-27T02:06:46.654Z,2.08
2022-09-27T02:07:53.302Z,2.30
2022-09-27T02:08:59.103Z,2.88
2022-09-27T02:10:03.727Z,2.30
2022-09-27T02:11:09.404Z,3.17
2022-09-27T02:12:15.333Z,2.65
2022-09-27T02:13:21.011Z,2.97
2022-09-27T02:14:27.022Z,1.90
2022-09-27T02:15:33.472Z,2.08
2022-09-27T02:16:46.123Z,2.10
2022-09-27T02:17:56.979Z,2.85
2022-09-27T02:19:07.964Z,2.50
2022-09-27T02:20:15.543Z,2.15
2022-09-27T02:21:19.342Z,2.90
2022-09-27T02:22:30.495Z,2.97
2022-09-27T02:23:39.376Z,2.63
2022-09-27T02:24:44.980Z,2.50
2022-09-27T02:25:52.893Z,2.58
2022-09-27T02:27:01.146Z,3.63
2022-09-27T02:28:14.426Z,4.32
2022-09-27T02:29:22.267Z,3.83
2022-09-27T02:30:23.724Z,2.75
2022-09-27T02:31:25.802Z,2.03
2022-09-27T02:32:28.760Z,2.78
2022-09-27T02:33:34.190Z,2.00
2022-09-27T02:34:36.471Z,3.17
2022-09-27T02:35:37.893Z,2.28
2022-09-27T02:36:40.251Z,3.95
2022-09-27T02:37:41.794Z,2.10
2022-09-27T02:38:44.164Z,2.42
2022-09-27T02:39:45.891Z,2.05
2022-09-27T02:40:48.045Z,2.35
2022-09-27T02:41:49.541Z,1.77
2022-09-27T02:42:51.694Z,2.00
2022-09-27T02:43:56.215Z,2.83
2022-09-27T02:44:57.877Z,4.50
2022-09-27T02:46:13.970Z,3.92
2022-09-27T02:47:43.862Z,2.03
2022-09-27T02:48:57.725Z,5.30
2022-09-27T02:50:23.056Z,3.83
2022-09-27T02:51:35.258Z,2.17
2022-09-27T02:52:49.830Z,2.00
2022-09-27T02:54:04.396Z,1.60
2022-09-27T02:55:14.455Z,2.45
2022-09-27T02:56:24.533Z,2.28
2022-09-27T02:57:36.787Z,1.70
2022-09-27T02:58:52.863Z,1.65
2022-09-27T03:00:02.455Z,3.00
2022-09-27T03:01:12.424Z,3.97
2022-09-27T03:02:21.483Z,2.45
2022-09-27T03:03:32.976Z,2.20
2022-09-27T03:05:42.124Z,2.35
2022-09-27T03:06:47.157Z,2.08
2022-09-27T03:07:49.211Z,3.17
2022-09-27T03:08:51.339Z,1.60
2022-09-27T03:09:54.631Z,1.38
2022-09-27T03:10:56.028Z,2.50
2022-09-27T03:11:57.565Z,2.33
2022-09-27T03:12:59.066Z,1.42
2022-09-27T03:14:09.274Z,2.72
2022-09-27T03:15:11.008Z,0.90
2022-09-27T03:16:12.452Z,2.05
2022-09-27T03:17:16.677Z,2.78
2022-09-27T03:18:18.123Z,1.20
2022-09-27T03:19:20.877Z,2.15
2022-09-27T03:20:22.370Z,1.27
2022-09-27T03:21:23.848Z,1.10
2022-09-27T03:22:25.373Z,3.00
2022-09-27T03:23:26.866Z,1.90
2022-09-27T03:24:28.397Z,1.13
2022-09-27T03:25:29.894Z,2.75
2022-09-27T03:26:31.496Z,0.85
2022-09-27T03:27:33.156Z,1.00
2022-09-27T03:28:34.566Z,1.98
2022-09-27T03:29:36.123Z,1.08
2022-09-27T03:30:37.690Z,1.48
2022-09-27T03:31:39.196Z,1.08
2022-09-27T03:32:44.093Z,1.58
2022-09-27T03:33:45.713Z,2.15
2022-09-27T03:34:48.481Z,1.67
2022-09-27T03:35:49.909Z,2.83
2022-09-27T03:36:51.569Z,3.53
2022-09-27T03:37:52.981Z,4.18
2022-09-27T03:38:54.780Z,5.32
2022-09-27T03:39:56.249Z,6.38
2022-09-27T03:40:57.701Z,5.72
2022-09-27T03:41:59.192Z,7.25
2022-09-27T03:43:00.642Z,7.70
2022-09-27T03:44:02.054Z,5.10
2022-09-27T03:45:03.969Z,6.18
2022-09-27T03:46:05.717Z,6.30
2022-09-27T03:47:07.194Z,5.25
2022-09-27T03:48:08.591Z,1.90
2022-09-27T03:49:10.045Z,2.45
2022-09-27T03:50:13.596Z,2.55
2022-09-27T03:51:15.032Z,3.05
2022-09-27T03:52:16.721Z,1.38
2022-09-27T03:53:18.201Z,1.13
2022-09-27T03:54:19.584Z,3.13
2022-09-27T03:55:21.040Z,0.77
2022-09-27T03:56:22.719Z,3.20
2022-09-27T03:57:24.121Z,1.70
2022-09-27T03:58:25.566Z,0.57
2022-09-27T03:59:27.002Z,1.90
2022-09-27T04:00:28.470Z,0.77
2022-09-27T04:01:30.031Z,0.50
2022-09-27T04:02:31.659Z,2.53
2022-09-27T04:03:33.125Z,0.82
2022-09-27T04:04:34.553Z,0.60
2022-09-27T04:05:37.490Z,0.60
2022-09-27T04:06:38.884Z,3.03
2022-09-27T04:07:40.286Z,0.60
2022-09-27T04:08:41.728Z,0.82
2022-09-27T04:09:44.828Z,2.05
2022-09-27T04:10:46.367Z,1.52
2022-09-27T04:11:47.927Z,0.82
2022-09-27T04:12:52.160Z,0.50
2022-09-27T04:13:53.740Z,1.08
2022-09-27T04:14:55.218Z,1.05
2022-09-27T04:15:56.756Z,5.07
2022-09-27T04:16:58.292Z,1.13
2022-09-27T04:17:59.729Z,1.10
2022-09-27T04:19:01.271Z,1.55
2022-09-27T04:20:03.336Z,1.45
2022-09-27T04:21:06.163Z,2.05
2022-09-27T04:22:07.637Z,2.05
2022-09-27T04:23:11.051Z,1.75
2022-09-27T04:24:12.518Z,2.92
2022-09-27T04:25:14.078Z,2.22
2022-09-27T04:26:15.531Z,0.95
2022-09-27T04:27:17.192Z,2.53
2022-09-27T04:28:18.612Z,2.28
2022-09-27T04:29:20.056Z,2.08
2022-09-27T04:30:22.678Z,3.83
2022-09-27T04:31:24.526Z,2.60
2022-09-27T04:32:26.078Z,2.97
2022-09-27T04:33:27.549Z,2.58
2022-09-27T04:34:28.966Z,5.75
2022-09-27T04:35:30.658Z,2.85
2022-09-27T04:36:33.812Z,2.20
2022-09-27T04:37:35.299Z,4.45
2022-09-27T04:38:36.704Z,4.88
2022-09-27T04:39:41.075Z,2.95
2022-09-27T04:40:42.569Z,4.68
2022-09-27T04:41:44.055Z,2.88
2022-09-27T04:42:45.477Z,4.35
2022-09-27T04:43:46.953Z,9.43
2022-09-27T04:44:48.346Z,1.67
2022-09-27T04:45:49.822Z,3.45
2022-09-27T04:46:51.337Z,5.38
2022-09-27T04:47:52.832Z,3.67
2022-09-27T04:48:54.286Z,5.07
2022-09-27T04:49:55.738Z,3.42
2022-09-27T04:50:58.458Z,3.17
2022-09-27T04:52:01.899Z,3.40
2022-09-27T04:53:03.787Z,4.25
2022-09-27T04:54:05.294Z,4.28
2022-09-27T04:55:08.276Z,10.70
2022-09-27T04:56:10.376Z,6.50
2022-09-27T04:57:11.905Z,15.73
2022-09-27T04:58:13.347Z,8.23
2022-09-27T04:59:14.844Z,7.45
2022-09-27T05:00:17.088Z,8.73
2022-09-27T05:01:18.622Z,9.88
2022-09-27T05:02:20.207Z,9.85
2022-09-27T05:03:22.060Z,13.15
2022-09-27T05:04:23.509Z,6.60
2022-09-27T05:05:25.084Z,13.75
2022-09-27T05:06:26.616Z,11.25
2022-09-27T05:07:29.854Z,15.48
2022-09-27T05:08:31.293Z,14.93
2022-09-27T05:09:32.718Z,15.13
2022-09-27T05:10:34.201Z,19.75
2022-09-27T05:11:35.637Z,15.15
2022-09-27T05:12:37.142Z,15.35
2022-09-27T05:13:38.709Z,16.02
2022-09-27T05:14:40.247Z,19.25
2022-09-27T05:15:42.194Z,11.95
2022-09-27T05:16:43.709Z,11.52
2022-09-27T05:17:45.215Z,12.60
2022-09-27T05:18:46.693Z,10.93
2022-09-27T05:19:48.433Z,8.18
2022-09-27T05:20:49.846Z,7.90
2022-09-27T05:21:51.439Z,6.40
2022-09-27T05:22:54.249Z,4.90
2022-09-27T05:23:55.709Z,7.32
2022-09-27T05:24:57.109Z,6.18
2022-09-27T05:25:58.559Z,4.13
2022-09-27T05:27:03.024Z,5.63
2022-09-27T05:28:06.521Z,5.90
2022-09-27T05:29:08.131Z,7.15
2022-09-27T05:30:10.987Z,10.88
2022-09-27T05:31:12.504Z,11.95
2022-09-27T05:32:15.075Z,17.20
2022-09-27T05:33:16.563Z,11.85
2022-09-27T05:34:18.073Z,10.45
2022-09-27T05:35:19.949Z,6.57
2022-09-27T05:36:21.467Z,9.95
2022-09-27T05:37:23.052Z,13.73
2022-09-27T05:38:25.953Z,16.33
2022-09-27T05:39:27.362Z,14.65
2022-09-27T05:40:40.814Z,16.20
2022-09-27T05:41:43.503Z,15.18
2022-09-27T05:42:45.042Z,15.45
2022-09-27T05:43:46.440Z,16.33
2022-09-27T05:44:47.848Z,16.83
2022-09-27T05:45:49.434Z,11.50
2022-09-27T05:46:51.060Z,6.70
2022-09-27T05:47:53.540Z,11.40
2022-09-27T05:48:55.126Z,8.10
2022-09-27T05:49:56.685Z,9.20
2022-09-27T05:50:58.405Z,8.02
2022-09-27T05:52:00.612Z,5.05
2022-09-27T05:53:02.160Z,4.28
2022-09-27T05:54:05.084Z,6.50
2022-09-27T05:55:07.409Z,7.93
2022-09-27T05:56:09.069Z,9.63
2022-09-27T05:57:10.671Z,8.23
2022-09-27T05:58:12.164Z,6.28
2022-09-27T05:59:13.869Z,7.32
2022-09-27T06:00:15.644Z,3.58
2022-09-27T06:01:17.719Z,1.50
2022-09-27T06:02:19.588Z,4.43
2022-09-27T06:03:21.094Z,4.85
2022-09-27T06:04:22.853Z,1.27
2022-09-27T06:05:25.516Z,3.55
2022-09-27T06:06:26.907Z,2.75
2022-09-27T06:07:30.658Z,2.05
2022-09-27T06:08:33.463Z,3.90
2022-09-27T06:09:36.266Z,3.10
2022-09-27T06:10:39.188Z,4.63
2022-09-27T06:11:43.142Z,2.72
2022-09-27T06:12:46.698Z,4.68
2022-09-27T06:13:48.182Z,5.72
2022-09-27T06:14:52.517Z,10.27
2022-09-27T06:15:54.113Z,7.80
2022-09-27T06:16:56.043Z,10.55
2022-09-27T06:18:02.212Z,9.98
2022-09-27T06:19:03.825Z,6.78
2022-09-27T06:20:06.433Z,5.32
2022-09-27T06:21:08.039Z,6.55
2022-09-27T06:22:09.630Z,9.48
2022-09-27T06:23:13.579Z,3.45
2022-09-27T06:24:15.157Z,4.88
2022-09-27T06:25:17.995Z,6.97
2022-09-27T06:26:19.756Z,2.88
2022-09-27T06:27:21.419Z,3.97
2022-09-27T06:28:23.197Z,1.80
2022-09-27T06:29:24.852Z,3.42
2022-09-27T06:30:26.607Z,2.42
2022-09-27T06:31:28.183Z,3.00
2022-09-27T06:32:29.643Z,2.40
2022-09-27T06:33:33.045Z,0.82
2022-09-27T06:34:34.540Z,1.33
2022-09-27T06:35:36.397Z,2.17
2022-09-27T06:36:37.973Z,1.52
2022-09-27T06:37:39.485Z,1.77
2022-09-27T06:38:41.081Z,1.55
2022-09-27T06:39:42.526Z,1.92
2022-09-27T06:40:45.660Z,3.00
2022-09-27T06:41:47.359Z,2.20
2022-09-27T06:42:48.872Z,3.88
2022-09-27T06:43:50.522Z,4.35
2022-09-27T06:44:51.939Z,4.57
2022-09-27T06:45:53.654Z,4.32
2022-09-27T06:46:57.384Z,2.67
2022-09-27T06:47:58.991Z,4.65
2022-09-27T06:49:00.449Z,3.83
2022-09-27T06:50:01.973Z,8.75
2022-09-27T06:51:03.795Z,6.38
2022-09-27T06:52:05.225Z,5.88
2022-09-27T06:53:08.476Z,11.27
2022-09-27T06:54:09.956Z,7.70
2022-09-27T06:55:11.367Z,7.07
2022-09-27T06:56:14.235Z,7.22
2022-09-27T06:57:15.651Z,10.88
2022-09-27T06:58:18.209Z,5.93
2022-09-27T06:59:19.672Z,4.72
2022-09-27T07:00:21.183Z,4.35
2022-09-27T07:01:27.867Z,8.85
2022-09-27T07:02:29.339Z,3.15
2022-09-27T07:03:34.449Z,3.10
2022-09-27T07:04:38.066Z,2.08
2022-09-27T07:05:40.186Z,3.40
2022-09-27T07:06:41.612Z,2.58
2022-09-27T07:07:43.052Z,3.70
2022-09-27T07:08:44.463Z,6.30
2022-09-27T07:09:45.872Z,2.38
2022-09-27T07:10:47.303Z,2.65
2022-09-27T07:11:50.063Z,3.67
2022-09-27T07:12:51.504Z,1.73
2022-09-27T07:13:53.054Z,3.83
2022-09-27T07:14:54.468Z,2.38
2022-09-27T07:15:55.888Z,1.70
2022-09-27T07:16:57.319Z,3.42
2022-09-27T07:17:59.886Z,2.45
2022-09-27T07:19:01.465Z,0.98
2022-09-27T07:20:03.091Z,2.20
2022-09-27T07:21:04.819Z,1.65
2022-09-27T07:22:06.243Z,1.25
2022-09-27T07:23:09.261Z,1.35
2022-09-27T07:24:10.712Z,0.88
2022-09-27T07:25:12.157Z,1.13
2022-09-27T07:26:13.556Z,0.68
2022-09-27T07:27:16.378Z,0.50
2022-09-27T07:28:22.099Z,0.93
2022-09-27T07:29:23.749Z,0.40
2022-09-27T07:30:25.244Z,2.83
2022-09-27T07:31:26.818Z,1.05
2022-09-27T07:32:28.225Z,2.25
2022-09-27T07:33:29.871Z,0.70
2022-09-27T07:34:33.237Z,0.50
2022-09-27T07:35:35.470Z,0.77
2022-09-27T07:36:36.903Z,0.52
2022-09-27T07:37:38.641Z,0.50
2022-09-27T07:38:40.214Z,0.85
2022-09-27T07:39:41.641Z,0.57
2022-09-27T07:40:43.432Z,2.78
2022-09-27T07:41:44.959Z,2.28
2022-09-27T07:42:47.735Z,1.23
2022-09-27T07:43:49.120Z,1.85
2022-09-27T07:44:50.493Z,1.60
2022-09-27T07:45:51.912Z,1.58
2022-09-27T07:46:53.388Z,1.90
2022-09-27T07:47:54.843Z,2.58
2022-09-27T07:48:56.256Z,0.50
2022-09-27T07:49:57.688Z,1.88
2022-09-27T07:50:59.205Z,5.20
2022-09-27T07:52:01.019Z,2.00
2022-09-27T07:53:02.450Z,1.02
2022-09-27T07:54:08.521Z,2.33
2022-09-27T07:55:11.653Z,2.38
2022-09-27T07:56:13.087Z,2.90
2022-09-27T07:57:15.130Z,4.15
2022-09-27T07:58:18.110Z,5.68
2022-09-27T07:59:19.517Z,8.35
2022-09-27T08:00:20.942Z,5.20
2022-09-27T08:01:22.443Z,3.67
2022-09-27T08:02:23.949Z,4.32
2022-09-27T08:03:25.455Z,4.88
2022-09-27T08:04:26.831Z,6.10
2022-09-27T08:05:28.216Z,5.07
2022-09-27T08:06:29.691Z,3.67
2022-09-27T08:07:31.185Z,1.33
2022-09-27T08:08:32.663Z,0.65
2022-09-27T08:09:34.180Z,0.80
2022-09-27T08:10:35.708Z,0.52
2022-09-27T08:11:37.108Z,2.80
2022-09-27T08:12:38.589Z,2.17
2022-09-27T08:13:41.556Z,1.48
2022-09-27T08:14:47.898Z,0.57
2022-09-27T08:15:49.798Z,1.92
2022-09-27T08:16:51.310Z,0.52
2022-09-27T08:17:53.323Z,0.90
2022-09-27T08:18:54.760Z,2.15
2022-09-27T08:19:56.338Z,1.50
2022-09-27T08:20:58.211Z,1.30
2022-09-27T08:21:59.644Z,0.40
2022-09-27T08:23:01.155Z,0.88
2022-09-27T08:24:02.877Z,0.93
2022-09-27T08:25:05.071Z,0.60
2022-09-27T08:26:06.532Z,1.35
2022-09-27T08:27:11.811Z,1.08
2022-09-27T08:28:13.647Z,2.28
2022-09-27T08:29:16.613Z,0.50
2022-09-27T08:30:18.159Z,1.27
2022-09-27T08:31:19.686Z,2.05
2022-09-27T08:32:23.509Z,0.77
2022-09-27T08:33:28.619Z,0.98
2022-09-27T08:34:32.866Z,0.45
2022-09-27T08:35:34.316Z,0.82
2022-09-27T08:36:35.749Z,0.40
2022-09-27T08:37:37.151Z,0.68
2022-09-27T08:38:38.571Z,0.35
2022-09-27T08:39:40.776Z,0.38
2022-09-27T08:40:52.835Z,0.50
2022-09-27T08:42:01.974Z,1.50
2022-09-27T08:43:11.995Z,0.30
2022-09-27T08:44:25.635Z,0.40
2022-09-27T08:45:30.895Z,0.73
2022-09-27T08:46:41.887Z,0.85
2022-09-27T08:47:47.608Z,0.40
2022-09-27T08:48:54.330Z,0.88
2022-09-27T08:49:59.433Z,0.40
2022-09-27T08:51:02.551Z,0.30
2022-09-27T08:52:07.061Z,0.45
2022-09-27T08:53:19.483Z,0.20
2022-09-27T08:54:23.903Z,1.75
2022-09-27T08:55:31.141Z,0.55
2022-09-27T08:56:33.188Z,4.55
2022-09-27T08:57:34.671Z,5.25
2022-09-27T08:58:39.411Z,2.65
2022-09-27T08:59:46.917Z,0.93
2022-09-27T09:00:50.855Z,0.40
2022-09-27T09:01:53.985Z,0.50
2022-09-27T09:02:55.795Z,0.57
2022-09-27T09:04:00.419Z,0.50
2022-09-27T09:05:08.182Z,0.70
2022-09-27T09:06:19.297Z,0.70
2022-09-27T09:07:35.633Z,0.65
2022-09-27T09:08:51.285Z,0.50
2022-09-27T09:09:58.767Z,0.50
2022-09-27T09:11:09.305Z,0.80
2022-09-27T09:12:26.370Z,1.05
2022-09-27T09:13:44.821Z,0.68
2022-09-27T09:15:16.094Z,0.95
2022-09-27T09:16:34.049Z,0.60
2022-09-27T09:17:52.322Z,1.95
2022-09-27T09:19:06.840Z,1.17
2022-09-27T09:20:33.603Z,1.33
2022-09-27T09:21:48.256Z,1.88
2022-09-27T09:23:30.469Z,2.17
2022-09-27T09:24:42.982Z,3.63
2022-09-27T09:25:57.049Z,4.68
2022-09-27T09:27:05.513Z,1.75
2022-09-27T09:28:26.631Z,3.65
2022-09-27T09:29:47.917Z,5.75
2022-09-27T09:31:02.029Z,2.50
2022-09-27T09:32:16.738Z,2.88
2022-09-27T09:33:27.776Z,4.25
2022-09-27T09:34:34.757Z,2.00
2022-09-27T09:35:40.921Z,4.13
2022-09-27T09:36:46.373Z,2.33
2022-09-27T09:37:50.522Z,2.20
2022-09-27T09:38:56.109Z,3.75
2022-09-27T09:40:04.291Z,1.20
2022-09-27T09:41:17.194Z,1.60
2022-09-27T09:42:25.023Z,2.80
2022-09-27T09:43:30.996Z,1.98
2022-09-27T09:44:39.703Z,2.53
2022-09-27T09:45:45.221Z,1.33
2022-09-27T09:46:51.741Z,1.27
2022-09-27T09:47:59.700Z,1.58
2022-09-27T09:49:08.810Z,1.10
2022-09-27T09:50:17.814Z,0.80
2022-09-27T09:51:24.465Z,2.45
2022-09-27T09:52:36.724Z,2.50
2022-09-27T09:53:42.577Z,1.70
2022-09-27T09:54:49.082Z,3.13
2022-09-27T09:55:55.445Z,1.35
2022-09-27T09:57:01.796Z,1.40
2022-09-27T09:58:19.655Z,2.05
2022-09-27T09:59:27.919Z,1.20
2022-09-27T10:00:29.722Z,2.03
2022-09-27T10:01:37.249Z,3.85
2022-09-27T10:02:43.207Z,2.60
2022-09-27T10:03:44.783Z,4.10
2022-09-27T10:04:46.179Z,2.88
2022-09-27T10:05:47.726Z,1.33
2022-09-27T10:06:53.545Z,0.73
2022-09-27T10:07:58.840Z,0.60
2022-09-27T10:09:00.333Z,0.63
2022-09-27T10:10:04.543Z,0.30
2022-09-27T10:11:06.587Z,0.65
2022-09-27T10:12:09.519Z,0.90
2022-09-27T10:13:15.781Z,0.80
2022-09-27T10:14:19.255Z,0.35
2022-09-27T10:15:22.893Z,0.40
2022-09-27T10:16:26.502Z,0.35
2022-09-27T10:17:35.790Z,0.30
2022-09-27T10:18:40.409Z,2.67
2022-09-27T10:19:42.841Z,1.10
2022-09-27T10:20:49.633Z,0.30
2022-09-27T10:21:51.412Z,0.35
2022-09-27T10:22:54.630Z,0.35
2022-09-27T10:24:15.019Z,0.40
2022-09-27T10:25:19.041Z,0.40
2022-09-27T10:26:20.486Z,0.30
2022-09-27T10:27:22.792Z,0.47
2022-09-27T10:28:30.148Z,0.40
2022-09-27T10:29:37.260Z,0.47
2022-09-27T10:30:39.436Z,0.55
2022-09-27T10:31:41.312Z,0.30
2022-09-27T10:32:42.792Z,0.32
2022-09-27T10:33:55.837Z,0.30
2022-09-27T10:35:20.242Z,0.30
2022-09-27T10:36:27.164Z,0.40
2022-09-27T10:37:28.645Z,0.40
2022-09-27T10:38:32.006Z,0.50
2022-09-27T10:39:34.021Z,0.65
2022-09-27T10:40:35.565Z,0.40
2022-09-27T10:41:38.350Z,0.90
2022-09-27T10:42:39.760Z,0.43
2022-09-27T10:43:41.183Z,0.50
2022-09-27T10:44:42.636Z,0.50
2022-09-27T10:45:44.235Z,0.80
2022-09-27T10:46:48.079Z,0.63
2022-09-27T10:47:49.713Z,0.50
2022-09-27T10:49:11.329Z,0.75
2022-09-27T10:50:32.738Z,0.60
2022-09-27T10:51:40.804Z,1.20
2022-09-27T10:52:42.245Z,1.63
2022-09-27T10:53:46.342Z,0.70
2022-09-27T10:54:55.041Z,0.80
2022-09-27T10:55:56.886Z,1.98
2022-09-27T10:57:01.802Z,1.75
2022-09-27T10:58:04.230Z,2.88
2022-09-27T10:59:05.993Z,2.10
2022-09-27T11:00:22.536Z,1.90
2022-09-27T11:01:24.907Z,2.97
2022-09-27T11:02:31.153Z,2.65
2022-09-27T11:03:37.376Z,3.42
2022-09-27T11:04:40.238Z,4.22
2022-09-27T11:05:42.518Z,3.05
2022-09-27T11:06:43.945Z,4.72
2022-09-27T11:07:50.866Z,3.35
2022-09-27T11:08:53.771Z,2.95
2022-09-27T11:09:57.548Z,1.30
2022-09-27T11:11:06.847Z,1.35
2022-09-27T11:12:09.119Z,2.13
2022-09-27T11:13:15.957Z,1.25
2022-09-27T11:14:22.583Z,0.80
2022-09-27T11:15:25.767Z,1.48
2022-09-27T11:16:41.868Z,1.42
2022-09-27T11:17:49.795Z,1.42
2022-09-27T11:19:03.557Z,3.70
2022-09-27T11:20:20.307Z,1.98
2022-09-27T11:21:33.185Z,1.73
2022-09-27T11:22:49.481Z,2.78
2022-09-27T11:24:03.907Z,1.17
2022-09-27T11:25:15.975Z,1.63
2022-09-27T11:26:33.652Z,1.15
2022-09-27T11:27:49.393Z,2.65
2022-09-27T11:29:01.594Z,1.42
2022-09-27T11:30:08.491Z,1.48
2022-09-27T11:31:19.814Z,1.67
2022-09-27T11:32:34.452Z,1.50
2022-09-27T11:34:04.264Z,0.70
2022-09-27T11:35:26.103Z,1.45
2022-09-27T11:37:44.515Z,1.27
2022-09-27T11:39:02.678Z,0.70
2022-09-27T11:40:19.515Z,1.58
2022-09-27T11:41:30.044Z,0.68
2022-09-27T11:42:55.409Z,3.17
2022-09-27T11:44:17.192Z,1.00
2022-09-27T11:46:52.876Z,2.78
2022-09-27T11:48:08.101Z,1.45
2022-09-27T11:49:34.863Z,3.40
2022-09-27T11:51:10.245Z,0.88
2022-09-27T11:52:32.888Z,1.00
2022-09-27T11:53:55.600Z,1.45
2022-09-27T11:55:11.024Z,0.85
2022-09-27T11:56:26.845Z,0.65
2022-09-27T11:57:33.464Z,1.77
2022-09-27T11:58:47.947Z,1.25
2022-09-27T12:00:12.146Z,0.50
2022-09-27T12:01:25.960Z,0.70
2022-09-27T12:02:51.830Z,1.75
2022-09-27T12:04:22.742Z,2.20
2022-09-27T12:05:30.816Z,0.60
2022-09-27T12:06:46.054Z,1.17
2022-09-27T12:07:59.801Z,0.65
2022-09-27T12:09:06.233Z,1.13
2022-09-27T12:10:12.013Z,2.85
2022-09-27T12:11:21.147Z,0.88
2022-09-27T12:12:26.562Z,0.50
2022-09-27T12:13:34.675Z,1.65
2022-09-27T12:14:40.601Z,1.00
2022-09-27T12:15:45.974Z,0.85
2022-09-27T12:16:50.154Z,1.55
2022-09-27T12:17:55.751Z,0.65
2022-09-27T12:18:59.375Z,1.95
2022-09-27T12:20:10.413Z,2.03
2022-09-27T12:21:13.358Z,1.17
2022-09-27T12:22:40.162Z,0.70
2022-09-27T12:23:45.339Z,1.27
2022-09-27T12:24:47.502Z,0.52
2022-09-27T12:25:58.892Z,0.50
2022-09-27T12:27:06.428Z,1.20
2022-09-27T12:28:14.100Z,1.67
2022-09-27T12:29:20.468Z,1.13
2022-09-27T12:30:22.083Z,2.05
2022-09-27T12:31:30.278Z,1.33
2022-09-27T12:32:37.570Z,0.70
2022-09-27T12:33:44.983Z,1.63
2022-09-27T12:34:52.364Z,1.85
2022-09-27T12:35:57.504Z,0.80
2022-09-27T12:37:05.216Z,0.93
2022-09-27T12:38:13.779Z,0.50
2022-09-27T12:39:20.765Z,0.50
2022-09-27T12:40:26.683Z,0.63
2022-09-27T12:41:36.127Z,0.50
2022-09-27T12:43:50.018Z,0.50
2022-09-27T12:44:52.756Z,0.60
2022-09-27T12:46:07.897Z,2.47
2022-09-27T12:47:23.395Z,2.08
2022-09-27T12:48:35.013Z,0.50
2022-09-27T12:49:45.783Z,0.77
2022-09-27T12:50:50.989Z,1.63
2022-09-27T12:51:58.675Z,0.50
2022-09-27T12:53:08.065Z,1.83
2022-09-27T12:54:40.215Z,1.95
2022-09-27T12:56:09.049Z,2.67
2022-09-27T12:57:26.626Z,2.20
2022-09-27T12:59:21.928Z,0.50
2022-09-27T13:00:26.046Z,1.55
2022-09-27T13:01:42.430Z,2.38
2022-09-27T13:03:25.803Z,0.52
2022-09-27T13:04:42.954Z,1.92
2022-09-27T13:06:11.664Z,2.10
2022-09-27T13:07:27.739Z,0.80
2022-09-27T13:08:43.034Z,0.80
2022-09-27T13:10:17.187Z,0.85
2022-09-27T13:11:23.544Z,1.65
2022-09-27T13:12:27.598Z,2.22
2022-09-27T13:13:35.601Z,0.60
2022-09-27T13:14:57.098Z,1.10
2022-09-27T13:16:00.985Z,1.00
2022-09-27T13:17:02.670Z,2.42
2022-09-27T13:18:06.333Z,1.80
2022-09-27T13:19:40.372Z,1.75
2022-09-27T13:20:45.536Z,2.25
2022-09-27T13:21:56.301Z,1.23
2022-09-27T13:22:58.310Z,0.55
2022-09-27T13:23:59.793Z,1.27
2022-09-27T13:25:01.324Z,0.73
2022-09-27T13:26:20.630Z,2.30
2022-09-27T13:27:42.791Z,3.67
2022-09-27T13:28:58.632Z,2.03
2022-09-27T13:30:44.828Z,0.82
2022-09-27T13:32:14.587Z,1.85
2022-09-27T13:33:44.494Z,7.88
2022-09-27T13:34:47.964Z,1.65
2022-09-27T13:36:08.453Z,0.98
2022-09-27T13:37:43.150Z,0.85
2022-09-27T13:38:57.225Z,0.50
2022-09-27T13:40:12.003Z,0.50
2022-09-27T13:41:18.089Z,0.52
2022-09-27T13:42:31.625Z,0.50
2022-09-27T13:44:00.231Z,0.40
2022-09-27T13:45:22.395Z,0.80
2022-09-27T13:46:26.799Z,0.50
2022-09-27T13:47:32.586Z,1.42
2022-09-27T13:48:49.553Z,0.63
2022-09-27T13:49:56.249Z,0.73
2022-09-27T13:51:03.153Z,0.60
2022-09-27T13:52:19.314Z,1.35
2022-09-27T13:53:28.169Z,1.10
2022-09-27T13:54:49.447Z,1.58
2022-09-27T13:55:52.637Z,2.75
2022-09-27T13:56:55.997Z,1.30
2022-09-27T13:58:00.081Z,1.95
2022-09-27T13:59:04.255Z,1.73
2022-09-27T14:00:12.135Z,3.05
2022-09-27T14:01:26.028Z,1.70
2022-09-27T14:02:36.198Z,3.10
2022-09-27T14:03:42.303Z,5.88
2022-09-27T14:04:47.207Z,2.30
2022-09-27T14:05:52.518Z,0.50
2022-09-27T14:06:57.503Z,0.40
2022-09-27T14:08:01.335Z,0.93
2022-09-27T14:09:05.218Z,1.88
2022-09-27T14:10:14.158Z,0.30
2022-09-27T14:11:20.416Z,0.73
2022-09-27T14:12:28.906Z,1.58
2022-09-27T14:13:32.366Z,0.22
2022-09-27T14:14:35.612Z,0.68
2022-09-27T14:15:37.869Z,0.50
2022-09-27T14:16:43.379Z,0.40
2022-09-27T14:17:45.438Z,0.32
2022-09-27T14:18:49.491Z,0.70
2022-09-27T14:19:50.946Z,0.50
2022-09-27T14:20:52.910Z,0.50
2022-09-27T14:21:55.238Z,0.32
2022-09-27T14:22:56.656Z,1.20
2022-09-27T14:24:24.519Z,0.40
2022-09-27T14:25:25.991Z,0.50
2022-09-27T14:26:28.064Z,0.30
2022-09-27T14:27:35.687Z,1.23
2022-09-27T14:28:41.325Z,0.38
2022-09-27T14:29:46.261Z,1.77
2022-09-27T14:30:47.901Z,1.60
2022-09-27T14:32:03.801Z,0.47
2022-09-27T14:33:05.257Z,0.55
2022-09-27T14:34:08.151Z,0.60
2022-09-27T14:35:14.262Z,2.05
2022-09-27T14:36:25.455Z,1.88
2022-09-27T14:37:26.935Z,1.98
2022-09-27T14:38:39.414Z,0.40
2022-09-27T14:39:41.508Z,1.13
2022-09-27T14:40:44.923Z,0.63
2022-09-27T14:41:46.336Z,0.40
2022-09-27T14:42:53.376Z,1.73
2022-09-27T14:43:54.894Z,0.35
2022-09-27T14:45:01.734Z,0.40